createdAt,value
2019-04-05T00:00:03.872Z,37.70
2019-04-05T00:02:36.106Z,36.73
2019-04-05T00:05:07.560Z,37.57
2019-04-05T00:07:40.573Z,36.50
2019-04-05T00:10:11.493Z,36.57
2019-04-05T00:12:42.028Z,37.20
2019-04-05T00:15:15.611Z,36.17
2019-04-05T00:17:45.494Z,37.47
2019-04-05T00:20:16.747Z,38.83
2019-04-05T00:23:04.996Z,36.37
2019-04-05T00:25:36.429Z,38.20
2019-04-05T00:28:06.986Z,39.13
2019-04-05T00:30:37.643Z,37.83
2019-04-05T00:33:08.405Z,37.50
2019-04-05T00:35:40.379Z,39.10
2019-04-05T00:38:11.331Z,35.33
2019-04-05T00:40:42.079Z,38.33
2019-04-05T00:43:12.775Z,36.60
2019-04-05T00:45:43.548Z,36.30
2019-04-05T00:48:20.183Z,38.37
2019-04-05T00:50:50.763Z,38.07
2019-04-05T00:53:21.587Z,36.53
2019-04-05T00:55:52.182Z,38.90
2019-04-05T00:58:22.867Z,38.13
2019-04-05T01:00:55.847Z,36.13
2019-04-05T01:03:26.486Z,38.27
2019-04-05T01:05:56.979Z,36.10
2019-04-05T01:08:27.625Z,38.70
2019-04-05T01:10:58.375Z,36.90
2019-04-05T01:13:30.644Z,38.13
2019-04-05T01:16:02.913Z,38.30
2019-04-05T01:18:33.593Z,39.80
2019-04-05T01:21:04.563Z,36.73
2019-04-05T01:23:36.497Z,38.53
2019-04-05T01:26:07.659Z,38.20
2019-04-05T01:28:39.747Z,38.70
2019-04-05T01:31:10.503Z,38.63
2019-04-05T01:33:41.337Z,39.00
2019-04-05T01:36:11.950Z,37.67
2019-04-05T01:38:42.719Z,39.43
2019-04-05T01:41:13.424Z,37.87
2019-04-05T01:43:47.129Z,40.07
2019-04-05T01:46:20.075Z,38.47
2019-04-05T01:48:53.215Z,38.40
2019-04-05T01:51:23.946Z,39.07
2019-04-05T01:53:54.626Z,38.67
2019-04-05T01:56:25.490Z,39.47
2019-04-05T01:58:56.172Z,37.00
2019-04-05T02:01:26.994Z,37.53
2019-04-05T02:03:57.668Z,37.17
2019-04-05T02:06:28.532Z,40.23
2019-04-05T02:08:59.212Z,39.00
2019-04-05T02:11:49.214Z,39.17
2019-04-05T02:14:20.062Z,38.90
2019-04-05T02:16:50.745Z,39.03
2019-04-05T02:19:21.345Z,39.67
2019-04-05T02:21:52.161Z,37.33
2019-04-05T02:24:24.379Z,38.37
2019-04-05T02:26:55.141Z,40.60
2019-04-05T02:29:25.756Z,41.03
2019-04-05T02:31:56.436Z,39.53
2019-04-05T02:34:27.012Z,39.47
2019-04-05T02:36:57.792Z,40.77
2019-04-05T02:39:28.757Z,40.13
2019-04-05T02:42:02.672Z,40.03
2019-04-05T02:44:34.793Z,40.97
2019-04-05T02:47:05.586Z,40.60
2019-04-05T02:49:36.564Z,39.83
2019-04-05T02:52:14.450Z,41.70
2019-04-05T02:54:46.432Z,40.80
2019-04-05T02:57:18.178Z,40.20
2019-04-05T02:59:49.091Z,43.63
2019-04-05T03:02:20.209Z,41.37
2019-04-05T03:04:51.190Z,41.10
2019-04-05T03:07:22.328Z,39.97
2019-04-05T03:09:52.907Z,39.80
2019-04-05T03:12:23.992Z,39.57
2019-04-05T03:14:55.001Z,40.53
2019-04-05T03:17:26.911Z,41.00
2019-04-05T03:20:07.188Z,41.83
2019-04-05T03:22:38.583Z,44.33
2019-04-05T03:25:11.870Z,42.60
2019-04-05T03:27:45.200Z,41.97
2019-04-05T03:30:16.026Z,41.73
2019-04-05T03:32:46.845Z,40.17
2019-04-05T03:35:26.037Z,42.27
2019-04-05T03:37:56.607Z,43.27
2019-04-05T03:40:27.811Z,41.83
2019-04-05T03:42:59.004Z,44.97
2019-04-05T03:45:32.802Z,44.57
2019-04-05T03:48:05.255Z,41.60
2019-04-05T03:50:36.207Z,44.13
2019-04-05T03:53:07.156Z,43.50
2019-04-05T03:55:38.283Z,43.23
2019-04-05T03:58:09.096Z,42.17
2019-04-05T04:00:46.465Z,43.37
2019-04-05T04:03:20.344Z,40.13
2019-04-05T04:05:55.628Z,42.53
2019-04-05T04:08:29.680Z,42.93
2019-04-05T04:11:05.005Z,39.13
2019-04-05T04:13:40.665Z,42.20
2019-04-05T04:16:15.084Z,41.03
2019-04-05T04:18:49.844Z,40.60
2019-04-05T04:22:07.006Z,40.37
2019-04-05T04:24:38.776Z,40.03
2019-04-05T04:27:09.607Z,41.03
2019-04-05T04:29:41.477Z,41.13
2019-04-05T04:32:15.407Z,39.90
2019-04-05T04:35:17.521Z,40.37
2019-04-05T04:38:12.678Z,39.27
2019-04-05T04:40:46.302Z,41.80
2019-04-05T04:43:17.359Z,36.63
2019-04-05T04:45:48.312Z,41.00
2019-04-05T04:48:19.138Z,39.07
2019-04-05T04:50:50.280Z,38.17
2019-04-05T04:53:21.160Z,39.30
2019-04-05T04:55:52.251Z,40.20
2019-04-05T04:58:22.853Z,40.73
2019-04-05T05:00:53.901Z,38.93
2019-04-05T05:03:24.414Z,37.17
2019-04-05T05:05:55.476Z,38.07
2019-04-05T05:08:26.256Z,36.40
2019-04-05T05:10:58.366Z,37.03
2019-04-05T05:13:31.709Z,36.37
2019-04-05T05:16:11.609Z,34.47
2019-04-05T05:18:51.601Z,34.73
2019-04-05T05:21:23.191Z,33.47
2019-04-05T05:23:59.924Z,33.47
2019-04-05T05:26:32.154Z,34.63
2019-04-05T05:29:02.881Z,33.07
2019-04-05T05:31:33.527Z,34.73
2019-04-05T05:34:04.302Z,33.87
2019-04-05T05:36:35.485Z,34.33
2019-04-05T05:39:08.504Z,33.23
2019-04-05T05:41:39.021Z,32.00
2019-04-05T05:44:12.509Z,31.23
2019-04-05T05:46:43.084Z,34.60
2019-04-05T05:49:13.542Z,35.07
2019-04-05T05:51:50.930Z,34.27
2019-04-05T05:54:23.030Z,33.83
2019-04-05T05:56:53.634Z,33.03
2019-04-05T05:59:29.691Z,34.17
2019-04-05T06:02:01.233Z,32.63
2019-04-05T06:04:31.744Z,33.47
2019-04-05T06:07:04.106Z,33.77
2019-04-05T06:09:36.276Z,33.67
2019-04-05T06:12:06.844Z,32.63
2019-04-05T06:14:39.699Z,32.37
2019-04-05T06:17:11.213Z,34.10
2019-04-05T06:19:43.188Z,32.27
2019-04-05T06:22:16.524Z,33.03
2019-04-05T06:24:47.039Z,33.20
2019-04-05T06:27:20.825Z,30.50
2019-04-05T06:29:53.964Z,31.40
2019-04-05T06:32:28.984Z,29.47
2019-04-05T06:35:02.405Z,29.87
2019-04-05T06:37:33.016Z,30.23
2019-04-05T06:40:04.699Z,31.27
2019-04-05T06:42:35.319Z,31.17
2019-04-05T06:45:06.648Z,32.57
2019-04-05T06:47:38.937Z,30.23
2019-04-05T06:50:11.802Z,31.40
2019-04-05T06:52:47.652Z,31.57
2019-04-05T06:55:20.138Z,32.83
2019-04-05T06:57:58.918Z,32.47
2019-04-05T07:00:30.671Z,34.57
2019-04-05T07:03:03.061Z,31.90
2019-04-05T07:05:40.664Z,32.93
2019-04-05T07:08:11.462Z,34.17
2019-04-05T07:10:45.369Z,34.30
2019-04-05T07:13:18.839Z,31.63
2019-04-05T07:15:57.311Z,32.80
2019-04-05T07:18:35.620Z,32.83
2019-04-05T07:21:02.834Z,33.40
2019-04-05T07:23:33.431Z,34.90
2019-04-05T07:26:08.050Z,34.50
2019-04-05T07:28:43.172Z,34.67
2019-04-05T07:31:19.842Z,34.37
2019-04-05T07:33:56.244Z,34.60
2019-04-05T07:36:33.246Z,37.17
2019-04-05T07:39:11.268Z,37.23
2019-04-05T07:41:48.140Z,38.37
2019-04-05T07:44:19.781Z,37.27
2019-04-05T07:47:08.512Z,36.93
2019-04-05T07:49:40.501Z,37.70
2019-04-05T07:52:25.749Z,39.63
2019-04-05T07:55:00.629Z,41.23
2019-04-05T07:57:33.023Z,45.43
2019-04-05T08:00:23.277Z,43.47
2019-04-05T08:02:57.412Z,42.60
2019-04-05T08:05:28.440Z,39.67
2019-04-05T08:08:04.548Z,38.17
2019-04-05T08:10:41.033Z,35.80
2019-04-05T08:13:14.965Z,36.07
2019-04-05T08:15:47.738Z,34.60
2019-04-05T08:18:22.201Z,34.03
2019-04-05T08:20:53.167Z,35.53
2019-04-05T08:23:26.907Z,32.63
2019-04-05T08:26:00.887Z,35.07
2019-04-05T08:28:33.120Z,36.00
2019-04-05T08:31:05.407Z,33.10
2019-04-05T08:33:36.645Z,34.77
2019-04-05T08:36:08.610Z,35.73
2019-04-05T08:38:40.316Z,34.83
2019-04-05T08:41:12.315Z,33.37
2019-04-05T08:43:48.405Z,33.93
2019-04-05T08:46:19.034Z,32.90
2019-04-05T08:48:52.426Z,33.50
2019-04-05T08:51:22.359Z,34.10
2019-04-05T08:53:54.737Z,32.17
2019-04-05T08:56:29.749Z,34.33
2019-04-05T08:59:00.689Z,36.10
2019-04-05T09:01:38.603Z,32.23
2019-04-05T09:04:13.925Z,30.53
2019-04-05T09:06:44.764Z,32.33
2019-04-05T09:09:17.839Z,33.07
2019-04-05T09:11:51.248Z,32.77
2019-04-05T09:14:37.836Z,32.73
2019-04-05T09:17:31.261Z,33.13
2019-04-05T09:20:00.133Z,33.63
2019-04-05T09:22:32.152Z,33.30
2019-04-05T09:25:07.199Z,36.23
2019-04-05T09:27:42.052Z,37.33
2019-04-05T09:30:32.926Z,37.10
2019-04-05T09:33:14.949Z,34.43
2019-04-05T09:35:48.988Z,38.20
2019-04-05T09:38:21.398Z,37.43
2019-04-05T09:40:53.155Z,35.70
2019-04-05T09:43:27.945Z,34.53
2019-04-05T09:46:05.229Z,34.97
2019-04-05T09:48:37.464Z,37.70
2019-04-05T09:51:08.097Z,35.17
2019-04-05T09:53:39.296Z,36.43
2019-04-05T09:56:12.548Z,37.93
2019-04-05T09:58:49.296Z,35.13
2019-04-05T10:01:27.681Z,37.63
2019-04-05T10:06:54.270Z,34.40
2019-04-05T10:09:28.082Z,36.50
2019-04-05T10:12:01.364Z,35.80
2019-04-05T10:14:32.255Z,37.07
2019-04-05T10:17:08.120Z,38.67
2019-04-05T10:19:50.645Z,39.20
2019-04-05T10:22:27.440Z,35.17
2019-04-05T10:25:08.099Z,36.43
2019-04-05T10:27:38.818Z,38.47
2019-04-05T10:30:11.791Z,37.60
2019-04-05T10:32:48.796Z,36.57
2019-04-05T10:35:20.026Z,36.73
2019-04-05T10:37:54.216Z,37.63
2019-04-05T10:40:26.299Z,36.80
2019-04-05T10:42:58.445Z,35.10
2019-04-05T10:45:32.337Z,36.63
2019-04-05T10:48:04.208Z,38.03
2019-04-05T10:50:44.495Z,35.97
2019-04-05T10:53:23.319Z,36.97
2019-04-05T10:56:00.759Z,39.77
2019-04-05T10:58:47.100Z,37.70
2019-04-05T11:01:24.687Z,37.47
2019-04-05T11:03:57.220Z,36.60
2019-04-05T11:06:34.097Z,36.60
2019-04-05T11:09:11.700Z,36.60
2019-04-05T11:11:42.297Z,35.13
2019-04-05T11:14:14.152Z,37.87
2019-04-05T11:16:57.831Z,36.10
2019-04-05T11:19:21.287Z,34.53
2019-04-05T11:21:55.203Z,35.47
2019-04-05T11:24:28.017Z,37.50
2019-04-05T11:27:06.645Z,35.40
2019-04-05T11:29:39.622Z,35.47
2019-04-05T11:32:11.521Z,34.90
2019-04-05T11:34:42.185Z,35.97
2019-04-05T11:37:13.039Z,33.07
2019-04-05T11:39:48.619Z,39.30
2019-04-05T11:42:21.174Z,38.67
2019-04-05T11:45:00.712Z,37.60
2019-04-05T11:47:35.160Z,37.83
2019-04-05T11:50:10.774Z,37.73
2019-04-05T11:53:02.302Z,37.33
2019-04-05T11:55:47.048Z,40.03
2019-04-05T11:58:21.194Z,35.47
2019-04-05T12:01:23.676Z,37.40
2019-04-05T12:03:55.510Z,37.83
2019-04-05T12:06:28.753Z,36.50
2019-04-05T12:09:01.330Z,37.77
2019-04-05T12:11:41.699Z,38.63
2019-04-05T12:14:30.767Z,39.73
2019-04-05T12:17:05.263Z,37.77
2019-04-05T12:19:38.006Z,37.47
2019-04-05T12:22:09.389Z,39.53
2019-04-05T12:24:40.544Z,38.77
2019-04-05T12:27:16.056Z,38.70
2019-04-05T12:29:46.605Z,37.50
2019-04-05T12:32:18.898Z,36.30
2019-04-05T12:35:04.323Z,38.03
2019-04-05T12:37:58.147Z,41.97
2019-04-05T12:40:34.699Z,36.90
2019-04-05T12:43:06.174Z,40.13
2019-04-05T12:45:37.412Z,40.97
2019-04-05T12:48:08.144Z,39.73
2019-04-05T12:50:44.723Z,42.83
2019-04-05T12:53:17.201Z,43.37
2019-04-05T12:55:49.463Z,42.93
2019-04-05T12:58:25.525Z,42.80
2019-04-05T13:00:59.609Z,42.43
2019-04-05T13:03:30.258Z,41.13
2019-04-05T13:06:01.356Z,45.50
2019-04-05T13:08:38.108Z,42.93
2019-04-05T13:11:11.309Z,45.87
2019-04-05T13:13:49.236Z,43.73
2019-04-05T13:16:23.639Z,44.37
2019-04-05T13:18:54.841Z,43.10
2019-04-05T13:21:49.180Z,42.63
2019-04-05T13:24:24.189Z,44.57
2019-04-05T13:26:54.843Z,43.87
2019-04-05T13:29:28.256Z,45.67
2019-04-05T13:32:05.727Z,42.77
2019-04-05T13:34:36.522Z,44.67
2019-04-05T13:37:20.129Z,43.17
2019-04-05T13:39:54.026Z,44.13
2019-04-05T13:42:35.424Z,43.90
2019-04-05T13:45:14.864Z,45.23
2019-04-05T13:47:45.836Z,45.07
2019-04-05T13:50:21.498Z,44.67
2019-04-05T13:52:55.875Z,42.73
2019-04-05T13:55:26.746Z,46.00
2019-04-05T13:58:00.722Z,45.30
2019-04-05T14:00:31.783Z,45.33
2019-04-05T14:03:09.116Z,43.87
2019-04-05T14:05:43.806Z,46.43
2019-04-05T14:08:20.465Z,45.60
2019-04-05T14:11:16.245Z,44.80
2019-04-05T14:13:50.567Z,44.73
2019-04-05T14:16:25.538Z,45.33
2019-04-05T14:18:58.016Z,46.77
2019-04-05T14:21:47.319Z,45.77
2019-04-05T14:24:21.452Z,46.03
2019-04-05T14:27:10.591Z,46.27
2019-04-05T14:29:39.457Z,48.07
2019-04-05T14:32:20.387Z,46.03
2019-04-05T14:34:46.680Z,47.33
2019-04-05T14:37:26.129Z,49.07
2019-04-05T14:40:00.685Z,47.13
2019-04-05T14:42:42.634Z,48.30
2019-04-05T14:45:20.194Z,48.97
2019-04-05T14:47:57.622Z,48.30
2019-04-05T14:50:29.079Z,50.03
2019-04-05T14:53:02.155Z,48.73
2019-04-05T14:55:33.424Z,46.10
2019-04-05T14:58:14.980Z,49.87
2019-04-05T15:00:49.436Z,49.00
2019-04-05T15:03:27.438Z,48.83
2019-04-05T15:06:03.771Z,51.80
2019-04-05T15:08:52.099Z,49.03
2019-04-05T15:11:31.087Z,49.03
2019-04-05T15:14:06.359Z,46.43
2019-04-05T15:16:49.891Z,47.43
2019-04-05T15:19:29.357Z,47.17
2019-04-05T15:22:05.937Z,47.47
2019-04-05T15:24:48.371Z,46.40
2019-04-05T15:27:22.261Z,46.83
2019-04-05T15:30:17.541Z,48.37
2019-04-05T15:32:57.765Z,48.83
2019-04-05T15:35:28.279Z,48.33
2019-04-05T15:38:02.070Z,47.63
2019-04-05T15:40:35.686Z,46.30
2019-04-05T15:43:06.385Z,46.40
2019-04-05T15:45:47.253Z,46.30
2019-04-05T15:48:20.475Z,48.97
2019-04-05T15:50:59.291Z,47.07
2019-04-05T15:53:33.560Z,45.63
2019-04-05T15:56:04.851Z,47.70
2019-04-05T15:58:38.143Z,47.67
2019-04-05T16:01:11.218Z,46.10
2019-04-05T16:03:42.946Z,47.63
2019-04-05T16:06:13.627Z,49.53
2019-04-05T16:08:49.051Z,47.23
2019-04-05T16:11:19.766Z,47.40
2019-04-05T16:13:52.805Z,45.73
2019-04-05T16:16:24.396Z,45.27
2019-04-05T16:18:58.086Z,46.17
2019-04-05T16:21:31.098Z,45.77
2019-04-05T16:24:05.123Z,46.47
2019-04-05T16:26:39.023Z,47.83
2019-04-05T16:29:09.908Z,45.83
2019-04-05T16:31:42.777Z,43.63
2019-04-05T16:34:27.212Z,44.30
2019-04-05T16:37:00.099Z,45.60
2019-04-05T16:39:45.579Z,45.80
2019-04-05T16:42:26.072Z,47.53
2019-04-05T16:45:03.217Z,44.73
2019-04-05T16:47:40.745Z,43.80
2019-04-05T16:50:31.852Z,45.20
2019-04-05T16:53:05.403Z,43.70
2019-04-05T16:55:41.279Z,43.33
2019-04-05T16:58:13.628Z,42.97
2019-04-05T17:00:44.492Z,46.17
2019-04-05T17:03:29.678Z,44.73
2019-04-05T17:06:00.275Z,43.57
2019-04-05T17:08:45.595Z,44.10
2019-04-05T17:11:19.179Z,45.47
2019-04-05T17:13:49.986Z,45.33
2019-04-05T17:16:23.169Z,45.27
2019-04-05T17:18:56.370Z,46.73
2019-04-05T17:21:27.309Z,45.93
2019-04-05T17:24:18.074Z,43.30
2019-04-05T17:26:54.299Z,42.77
2019-04-05T17:29:25.042Z,43.10
2019-04-05T17:32:14.437Z,45.70
2019-04-05T17:34:43.289Z,43.77
2019-04-05T17:37:31.823Z,44.97
2019-04-05T17:40:09.570Z,42.33
2019-04-05T17:42:44.817Z,45.33
2019-04-05T17:45:28.560Z,47.00
2019-04-05T17:47:59.155Z,45.40
2019-04-05T17:50:33.540Z,45.27
2019-04-05T17:53:12.613Z,47.00
2019-04-05T17:55:45.241Z,44.77
2019-04-05T17:58:23.219Z,43.97
2019-04-05T18:00:56.786Z,45.87
2019-04-05T18:03:31.597Z,45.23
2019-04-05T18:06:03.900Z,46.53
2019-04-05T18:08:37.756Z,47.57
2019-04-05T18:11:15.674Z,46.50
2019-04-05T18:13:46.291Z,46.77
2019-04-05T18:16:23.999Z,47.27
2019-04-05T18:18:52.470Z,45.73
2019-04-05T18:21:24.799Z,46.10
2019-04-05T18:23:55.402Z,46.07
2019-04-05T18:26:26.654Z,49.40
2019-04-05T18:28:58.938Z,45.80
2019-04-05T18:31:37.391Z,50.33
2019-04-05T18:34:08.035Z,46.70
2019-04-05T18:36:41.662Z,46.27
2019-04-05T18:39:12.722Z,47.70
2019-04-05T18:41:44.753Z,47.37
2019-04-05T18:44:15.444Z,46.70
2019-04-05T18:46:50.120Z,48.00
2019-04-05T18:49:21.387Z,48.70
2019-04-05T18:51:53.902Z,48.60
2019-04-05T18:54:25.979Z,46.93
2019-04-05T18:56:59.449Z,47.80
2019-04-05T18:59:30.110Z,47.97
2019-04-05T19:02:03.093Z,48.73
2019-04-05T19:04:34.114Z,46.70
2019-04-05T19:07:09.414Z,48.20
2019-04-05T19:09:40.291Z,49.77
2019-04-05T19:12:14.227Z,50.57
2019-04-05T19:14:48.462Z,50.23
2019-04-05T19:17:24.871Z,47.37
2019-04-05T19:19:55.550Z,45.33
2019-04-05T19:22:27.473Z,46.27
2019-04-05T19:24:58.218Z,49.10
2019-04-05T19:27:36.093Z,48.23
2019-04-05T19:48:30.929Z,49.20
2019-04-05T19:50:48.042Z,47.13
2019-04-05T19:53:21.871Z,50.83
2019-04-05T19:55:53.801Z,47.40
2019-04-05T19:58:27.412Z,50.07
2019-04-05T20:01:01.133Z,48.13
2019-04-05T20:03:34.477Z,47.87
2019-04-05T20:06:16.163Z,48.63
2019-04-05T20:09:11.500Z,45.53
2019-04-05T20:11:47.168Z,48.03
2019-04-05T20:14:19.844Z,44.60
2019-04-05T20:16:50.890Z,49.93
2019-04-05T20:19:33.732Z,47.30
2019-04-05T20:22:20.447Z,48.37
2019-04-05T20:24:51.379Z,49.77
2019-04-05T20:27:21.951Z,48.17
2019-04-05T20:29:55.048Z,44.90
2019-04-05T20:32:27.466Z,51.47
2019-04-05T20:35:03.936Z,49.47
2019-04-05T20:37:40.178Z,48.80
2019-04-05T20:40:20.141Z,49.27
2019-04-05T20:42:51.080Z,45.50
2019-04-05T20:45:22.053Z,45.33
2019-04-05T20:47:58.319Z,48.00
2019-04-05T20:50:41.201Z,46.77
2019-04-05T20:53:12.575Z,48.03
2019-04-05T20:55:44.755Z,44.77
2019-04-05T20:58:23.634Z,47.00
2019-04-05T21:00:59.434Z,44.33
2019-04-05T21:03:30.168Z,46.60
2019-04-05T21:06:01.546Z,48.80
2019-04-05T21:08:33.477Z,47.77
2019-04-05T21:11:14.294Z,46.33
2019-04-05T21:13:46.129Z,46.17
2019-04-05T21:16:25.224Z,45.53
2019-04-05T21:19:05.029Z,48.03
2019-04-05T21:21:39.964Z,46.43
2019-04-05T21:24:12.319Z,49.33
2019-04-05T21:26:43.182Z,47.03
2019-04-05T21:29:15.408Z,47.93
2019-04-05T21:31:50.002Z,47.50
2019-04-05T21:34:33.928Z,46.70
2019-04-05T21:37:07.529Z,46.17
2019-04-05T21:39:39.927Z,46.23
2019-04-05T21:42:12.477Z,44.07
2019-04-05T21:44:47.700Z,45.43
2019-04-05T21:47:18.377Z,44.53
2019-04-05T21:49:55.856Z,44.17
2019-04-05T21:52:33.021Z,42.20
2019-04-05T21:55:04.370Z,44.53
2019-04-05T21:57:54.090Z,44.93
2019-04-05T22:00:28.453Z,42.93
2019-04-05T22:03:00.721Z,43.37
2019-04-05T22:05:35.679Z,43.07
2019-04-05T22:08:06.459Z,45.23
2019-04-05T22:10:43.146Z,44.30
2019-04-05T22:13:28.396Z,46.10
2019-04-05T22:15:59.046Z,41.60
2019-04-05T22:18:33.947Z,45.90
2019-04-05T22:21:05.675Z,43.00
2019-04-05T22:23:37.406Z,41.50
2019-04-05T22:26:10.777Z,44.97
2019-04-05T22:28:41.872Z,45.80
2019-04-05T22:31:12.625Z,44.67
2019-04-05T22:33:46.550Z,44.40
2019-04-05T22:36:17.478Z,43.73
2019-04-05T22:38:49.563Z,44.33
2019-04-05T22:41:20.434Z,42.27
2019-04-05T22:43:51.233Z,45.30
2019-04-05T22:46:23.554Z,44.67
2019-04-05T22:48:57.500Z,45.63
2019-04-05T22:51:31.104Z,44.67
2019-04-05T22:54:01.607Z,46.33
2019-04-05T22:56:36.467Z,45.20
2019-04-05T22:59:12.677Z,45.00
2019-04-05T23:01:47.184Z,43.73
2019-04-05T23:04:17.686Z,42.47
2019-04-05T23:06:55.937Z,42.23
2019-04-05T23:09:27.982Z,43.20
2019-04-05T23:12:02.533Z,42.57
2019-04-05T23:14:35.487Z,44.80
2019-04-05T23:17:27.837Z,45.87
2019-04-05T23:19:58.523Z,44.37
2019-04-05T23:22:32.295Z,41.27
2019-04-05T23:25:02.845Z,41.43
2019-04-05T23:27:35.799Z,40.33
2019-04-05T23:30:14.222Z,40.60
2019-04-05T23:32:44.876Z,40.47
2019-04-05T23:35:15.455Z,44.07
2019-04-05T23:37:46.434Z,45.33
2019-04-05T23:40:17.117Z,49.87
2019-04-05T23:42:47.721Z,46.20
2019-04-05T23:45:20.757Z,44.70
2019-04-05T23:47:51.405Z,40.30
2019-04-05T23:50:22.012Z,40.00
2019-04-05T23:52:52.641Z,38.13
2019-04-05T23:55:32.722Z,42.20
2019-04-05T23:58:13.120Z,40.33
